Time;durP1;ratioP1;P1;durP2;ratioP2;P2;SDS_P1;SDS_P2;PMS_P1;PMS_P2;Temp;Humidity;BMP_temperature;BMP_pressure;BME280_temperature;BME280_humidity;BME280_pressure;Samples;Min_cycle;Max_cycle;Signal;HPM_P1;HPM_P2
2021/04/18 00:01:50;;;;;;;0.65;0.32;;;;;;;6.26;32.87;101319.06;4814822;29;20044;-75
2021/04/18 00:04:16;;;;;;;0.80;0.80;;;;;;;6.26;33.53;101319.06;4840267;29;20030;-75
2021/04/18 00:06:42;;;;;;;4.72;2.75;;;;;;;6.31;32.90;101325.72;4847077;29;20106;-74
2021/04/18 00:09:10;;;;;;;4.53;2.35;;;;;;;6.27;33.43;101320.72;4805870;29;20493;-75
2021/04/18 00:11:44;;;;;;;6.25;2.25;;;;;;;6.23;33.29;101307.78;4827439;29;20034;-76
2021/04/18 00:14:20;;;;;;;3.72;2.40;;;;;;;6.24;33.72;101312.19;4837594;29;20158;-77
2021/04/18 00:16:45;;;;;;;15.07;6.85;;;;;;;6.25;34.00;101321.97;4823225;29;20034;-75
2021/04/18 00:19:11;;;;;;;12.13;4.68;;;;;;;6.09;34.32;101305.13;4840004;29;20397;-75
2021/04/18 00:21:39;;;;;;;4.80;3.22;;;;;;;5.93;35.53;101289.28;4808380;29;20181;-76
2021/04/18 00:24:08;;;;;;;2.40;2.30;;;;;;;5.92;35.79;101293.03;4812183;29;20081;-75
2021/04/18 00:26:33;;;;;;;6.35;1.95;;;;;;;5.92;36.04;101303.91;4825081;29;20516;-76
2021/04/18 00:28:59;;;;;;;2.63;2.42;;;;;;;5.82;35.32;101298.91;4826410;29;20179;-75
2021/04/18 00:31:27;;;;;;;2.95;1.67;;;;;;;5.77;36.12;101288.69;4813766;29;20030;-75
2021/04/18 00:33:52;;;;;;;1.50;1.40;;;;;;;5.79;36.13;101290.38;4807804;29;20042;-76
2021/04/18 00:36:35;;;;;;;1.00;1.00;;;;;;;5.77;35.75;101288.69;4813042;29;20045;-74
2021/04/18 00:39:03;;;;;;;1.67;0.93;;;;;;;5.74;35.39;101286.41;4816536;29;20402;-75
2021/04/18 00:41:33;;;;;;;0.70;0.60;;;;;;;5.76;35.52;101284.31;4811400;29;20057;-75
2021/04/18 00:44:01;;;;;;;1.20;1.15;;;;;;;5.75;35.97;101282.66;4821600;29;20030;-76
2021/04/18 00:46:26;;;;;;;1.90;1.80;;;;;;;5.65;36.77;101268.69;4837390;29;20117;-75
2021/04/18 00:48:52;;;;;;;2.35;2.15;;;;;;;5.79;37.07;101302.06;4839440;29;20465;-77
2021/04/18 00:51:17;;;;;;;1.23;1.13;;;;;;;5.75;36.51;101296.22;4820590;29;20026;-75
2021/04/18 00:53:43;;;;;;;1.38;1.27;;;;;;;5.68;36.03;101281.84;4839713;29;20033;-74
2021/04/18 00:56:10;;;;;;;0.82;0.82;;;;;;;5.76;36.05;101302.47;4828654;29;20037;-76
2021/04/18 00:58:37;;;;;;;0.80;0.80;;;;;;;5.60;36.30;101279.34;4837328;29;20073;-76
2021/04/18 01:01:07;;;;;;;1.90;0.80;;;;;;;5.57;36.29;101287.91;4835865;29;20022;-74
2021/04/18 01:03:42;;;;;;;0.85;0.70;;;;;;;5.54;36.41;101296.47;4858038;29;20094;-75
2021/04/18 01:06:07;;;;;;;1.75;0.85;;;;;;;5.35;36.91;101274.59;4857166;29;20034;-74
2021/04/18 01:08:33;;;;;;;0.45;0.35;;;;;;;5.35;37.12;101285.44;4850971;29;20026;-74
2021/04/18 01:11:02;;;;;;;2.58;0.60;;;;;;;5.34;36.55;101291.88;4838784;29;20041;-76
2021/04/18 01:13:37;;;;;;;;;;;;;;;;;;;;;
2021/04/18 01:16:05;;;;;;;0.55;0.55;;;;;;;5.25;36.47;101283.13;4844310;29;20109;-73
2021/04/18 01:18:31;;;;;;;0.63;0.63;;;;;;;5.18;36.60;101273.34;4832355;29;20031;-74
2021/04/18 01:21:28;;;;;;;0.70;0.50;;;;;;;5.11;37.06;101277.94;4833891;29;20484;-73
2021/04/18 01:23:54;;;;;;;0.45;0.45;;;;;;;5.11;38.02;101284.22;4830140;29;20046;-74
2021/04/18 01:26:23;;;;;;;0.95;0.30;;;;;;;5.01;37.47;101283.78;4846448;29;20485;-74
2021/04/18 01:28:48;;;;;;;0.57;0.57;;;;;;;4.99;37.74;101288.56;4840344;29;20026;-72
2021/04/18 01:31:14;;;;;;;0.45;0.43;;;;;;;4.90;38.04;101282.53;4823390;29;20350;-74
2021/04/18 01:33:41;;;;;;;0.50;0.50;;;;;;;4.84;37.39;101283.34;4830894;29;20033;-74
2021/04/18 01:36:07;;;;;;;0.55;0.52;;;;;;;4.78;37.30;101284.19;4829782;29;20029;-73
2021/04/18 01:38:42;;;;;;;0.30;0.30;;;;;;;4.74;38.64;101283.75;4814758;29;20094;-75
2021/04/18 01:41:28;;;;;;;0.73;0.70;;;;;;;4.59;38.75;101261.44;4818407;29;20053;-73
2021/04/18 01:43:56;;;;;;;0.40;0.40;;;;;;;4.66;37.98;101287.50;4832548;29;20037;-74
2021/04/18 01:46:25;;;;;;;0.40;0.40;;;;;;;4.59;38.33;101280.41;4839266;29;20048;-74
2021/04/18 01:48:50;;;;;;;0.50;0.50;;;;;;;4.58;38.02;101276.00;4838847;29;20116;-75
2021/04/18 01:51:15;;;;;;;0.77;0.73;;;;;;;4.48;38.98;101269.13;4853474;29;20030;-75
2021/04/18 01:57:31;;;;;;;0.73;0.73;;;;;;;4.42;38.53;101290.78;4851357;29;20105;-74
2021/04/18 01:59:57;;;;;;;2.28;0.50;;;;;;;4.27;38.68;101280.94;4830489;29;20511;-73
2021/04/18 02:02:30;;;;;;;0.25;0.25;;;;;;;4.25;38.50;101279.44;4828820;29;20121;-74
2021/04/18 02:04:58;;;;;;;0.50;0.50;;;;;;;4.22;39.10;101279.88;4846961;29;20026;-74
2021/04/18 02:08:24;;;;;;;;;;;;;;;;;;;;;
2021/04/18 02:11:07;;;;;;;;;;;;;;;4.16;38.54;101276.09;4838597;29;20050;-73
2021/04/18 02:13:40;;;;;;;0.70;0.70;;;;;;;4.05;40.20;101263.97;4832336;29;19920;-75
2021/04/18 02:16:10;;;;;;;3.05;1.90;;;;;;;3.94;41.85;101257.28;4838495;29;20054;-74
2021/04/18 02:18:38;;;;;;;2.75;2.38;;;;;;;3.87;42.21;101267.25;4850041;29;20522;-75
2021/04/18 02:21:03;;;;;;;2.03;1.92;;;;;;;3.86;42.03;101265.56;4834531;29;20060;-75
2021/04/18 02:23:31;;;;;;;2.97;1.58;;;;;;;3.88;42.14;101277.00;4833852;29;20037;-74
2021/04/18 02:26:09;;;;;;;1.50;1.40;;;;;;;3.87;42.02;101278.06;4828956;29;20040;-74
2021/04/18 02:28:43;;;;;;;0.88;0.88;;;;;;;3.85;41.44;101269.31;4830158;29;20030;-73
2021/04/18 02:31:11;;;;;;;0.47;0.47;;;;;;;3.66;40.76;101244.69;4830627;29;20086;-74
2021/04/18 02:33:37;;;;;;;0.68;0.68;;;;;;;3.90;40.95;101272.25;4838156;29;20075;-76
2021/04/18 02:36:03;;;;;;;0.50;0.50;;;;;;;3.92;41.71;101274.75;4836221;29;20026;-75
2021/04/18 02:38:36;;;;;;;1.45;1.33;;;;;;;3.78;41.60;101254.91;4834727;29;20034;-75
2021/04/18 02:41:04;;;;;;;0.68;0.68;;;;;;;3.84;41.86;101260.38;4817316;29;20030;-75
2021/04/18 02:43:29;;;;;;;0.88;0.88;;;;;;;3.89;41.20;101272.47;4828239;29;20034;-77
2021/04/18 02:45:55;;;;;;;1.00;0.88;;;;;;;3.91;41.70;101284.72;4808242;29;20499;-74
2021/04/18 02:48:29;;;;;;;0.68;0.68;;;;;;;3.70;41.12;101244.28;4827416;29;20041;-74
2021/04/18 02:53:49;;;;;;;0.65;0.32;;;;;;;3.94;41.58;101272.66;4842769;29;20040;-75
2021/04/18 02:56:48;;;;;;;1.38;1.38;;;;;;;3.74;42.31;101248.22;4846353;29;20030;-75
2021/04/18 02:59:21;;;;;;;2.45;2.25;;;;;;;3.63;42.87;101233.41;4827951;29;20140;-76
2021/04/18 03:01:57;;;;;;;;;;;;;;;;;;;;;
2021/04/18 03:04:33;;;;;;;;;;;;;;;;;;;;;
2021/04/18 03:07:10;;;;;;;0.70;0.70;;;;;;;3.76;43.03;101270.50;4845892;29;20028;-76
2021/04/18 03:09:36;;;;;;;0.52;0.52;;;;;;;3.73;42.30;101260.09;4821473;29;20038;-74
2021/04/18 03:12:15;;;;;;;0.30;0.30;;;;;;;3.79;41.71;101267.41;4828188;29;20036;-76
2021/04/18 03:14:43;;;;;;;0.90;0.90;;;;;;;3.62;42.93;101248.81;4844741;29;20034;-76
2021/04/18 03:17:18;;;;;;;;;;;;;;;;;;;;;
2021/04/18 03:19:49;;;;;;;1.40;1.30;;;;;;;3.67;43.56;101270.66;4837270;29;20044;-73
2021/04/18 03:22:27;;;;;;;;;;;;;;;;;;;;;
2021/04/18 03:24:56;;;;;;;0.60;0.60;;;;;;;3.46;43.14;101241.84;4842176;29;20030;-74
2021/04/18 03:27:24;;;;;;;1.83;0.90;;;;;;;3.55;42.93;101255.19;4827223;29;20050;-75
2021/04/18 03:30:08;;;;;;;0.60;0.60;;;;;;;3.53;43.35;101249.97;4844991;29;20030;-75
2021/04/18 03:32:44;;;;;;;0.73;0.30;;;;;;;3.56;42.72;101249.59;4833243;29;20029;-74
2021/04/18 03:35:11;;;;;;;0.20;0.20;;;;;;;3.57;42.93;101251.25;4848297;29;20389;-74
2021/04/18 03:37:39;;;;;;;0.60;0.60;;;;;;;3.46;42.95;101238.28;4829860;29;20418;-75
2021/04/18 03:40:11;;;;;;;0.40;0.28;;;;;;;3.53;43.60;101260.81;4845853;29;20037;-74
2021/04/18 03:42:41;;;;;;;1.30;0.73;;;;;;;3.38;43.06;101242.00;4845829;29;20094;-75
2021/04/18 03:45:13;;;;;;;0.47;0.35;;;;;;;3.41;42.87;101251.59;4848297;29;20038;-75
2021/04/18 03:47:48;;;;;;;0.43;0.43;;;;;;;3.40;43.67;101263.44;4836016;29;20037;-74
2021/04/18 03:50:17;;;;;;;0.60;0.60;;;;;;;3.30;43.33;101261.91;4814024;29;20068;-73
2021/04/18 03:52:45;;;;;;;0.50;0.50;;;;;;;3.37;43.67;101269.22;4842186;29;20117;-74
2021/04/18 03:55:11;;;;;;;0.80;0.80;;;;;;;3.21;43.77;101254.16;4845832;29;20436;-75
2021/04/18 03:57:51;;;;;;;0.60;0.52;;;;;;;3.29;43.49;101265.66;4817824;29;20086;-77
2021/04/18 04:00:28;;;;;;;;;;;;;;;;;;;;;
2021/04/18 04:03:11;;;;;;;0.43;0.43;;;;;;;3.17;43.65;101255.56;4859161;29;20097;-76
2021/04/18 04:05:39;;;;;;;0.35;0.35;;;;;;;3.01;43.75;101230.53;4839730;29;20029;-76
2021/04/18 04:08:12;;;;;;;0.68;0.68;;;;;;;3.06;43.57;101238.03;4858537;29;20359;-76
2021/04/18 04:10:38;;;;;;;0.28;0.28;;;;;;;3.09;44.75;101245.75;4826229;29;20089;-76
2021/04/18 04:13:03;;;;;;;0.52;0.45;;;;;;;3.14;44.71;101254.13;4828349;29;20030;-77
2021/04/18 04:15:29;;;;;;;0.50;0.50;;;;;;;3.24;44.00;101257.31;4823536;29;20037;-77
2021/04/18 04:17:54;;;;;;;1.05;0.95;;;;;;;3.09;44.24;101234.94;4828577;29;20034;-77
2021/04/18 04:20:32;;;;;;;0.80;0.38;;;;;;;3.24;44.23;101257.31;4816470;29;20025;-77
2021/04/18 04:23:05;;;;;;;0.77;0.60;;;;;;;3.24;44.69;101262.72;4842359;29;20045;-76
2021/04/18 04:25:33;;;;;;;0.65;0.65;;;;;;;3.08;45.13;101235.97;4825410;29;20485;-77
2021/04/18 04:28:07;;;;;;;0.70;0.70;;;;;;;3.12;44.92;101248.06;4823568;29;20038;-76
2021/04/18 04:30:35;;;;;;;0.70;0.65;;;;;;;3.11;45.08;101243.66;4817632;29;20093;-76
2021/04/18 04:33:01;;;;;;;0.75;0.75;;;;;;;3.19;45.26;101251.63;4847072;29;20085;-76
2021/04/18 04:35:27;;;;;;;4.45;1.90;;;;;;;3.04;46.35;101237.38;4816592;29;20034;-75
2021/04/18 04:37:55;;;;;;;2.55;2.45;;;;;;;3.00;46.97;101238.81;4841041;29;20672;-77
2021/04/18 04:40:29;;;;;;;2.25;2.13;;;;;;;2.90;47.46;101229.16;4811362;29;20022;-78
2021/04/18 04:43:22;;;;;;;3.17;2.85;;;;;;;2.80;46.52;101220.56;4807075;29;20133;-75
2021/04/18 04:45:48;;;;;;;2.78;2.50;;;;;;;2.93;46.85;101255.78;4822968;29;20038;-76
2021/04/18 04:48:26;;;;;;;;;;;;;;;;;;;;;
2021/04/18 04:50:51;;;;;;;2.55;1.75;;;;;;;2.83;47.48;101243.66;4841482;29;20842;-75
2021/04/18 04:53:35;;;;;;;3.30;1.65;;;;;;;2.86;46.74;101256.78;4820881;29;20072;-75
2021/04/18 04:56:02;;;;;;;1.10;1.10;;;;;;;2.76;46.43;101243.59;4821071;29;20140;-77
2021/04/18 04:58:28;;;;;;;0.82;0.60;;;;;;;2.77;47.18;101250.66;4833293;29;20119;-75
2021/04/18 05:00:55;;;;;;;1.95;1.65;;;;;;;2.77;47.45;101251.53;4810935;29;20122;-76
2021/04/18 05:03:25;;;;;;;3.60;3.35;;;;;;;2.82;49.20;101264.44;4815177;29;20109;-75
2021/04/18 05:05:54;;;;;;;3.85;3.38;;;;;;;2.75;49.51;101258.16;4827301;29;20034;-79
2021/04/18 05:08:20;;;;;;;4.72;3.33;;;;;;;2.75;48.49;101252.75;4816587;29;20075;-76
2021/04/18 05:10:46;;;;;;;2.55;2.45;;;;;;;2.75;48.43;101255.44;4818978;29;20034;-74
2021/04/18 05:13:13;;;;;;;2.67;2.53;;;;;;;2.84;48.61;101272.34;4846206;29;20550;-73
2021/04/18 05:15:38;;;;;;;2.30;1.85;;;;;;;2.75;48.49;101258.16;4844210;29;20075;-73
2021/04/18 05:18:13;;;;;;;2.70;2.00;;;;;;;2.76;48.60;101259.81;4826374;29;20022;-75
2021/04/18 05:23:26;;;;;;;1.77;1.48;;;;;;;2.88;47.95;101263.66;4836984;29;20054;-78
2021/04/18 05:25:59;;;;;;;2.00;1.90;;;;;;;2.89;48.10;101254.53;4826098;29;20393;-76
2021/04/18 05:28:24;;;;;;;2.00;1.90;;;;;;;2.79;48.79;101229.72;4848242;29;20082;-76
2021/04/18 05:30:58;;;;;;;2.78;2.53;;;;;;;2.91;48.59;101241.66;4845950;29;20030;-79
2021/04/18 05:33:25;;;;;;;2.63;2.53;;;;;;;3.11;48.57;101255.34;4847329;29;20030;-78
2021/04/18 05:35:53;;;;;;;1.73;1.35;;;;;;;3.27;48.87;101250.66;4841297;29;20138;-77
2021/04/18 05:38:22;;;;;;;1.45;1.35;;;;;;;3.21;47.65;101225.25;4841088;29;20030;-76
2021/04/18 05:40:47;;;;;;;1.13;1.02;;;;;;;3.46;48.58;101243.69;4846023;29;20100;-77
2021/04/18 05:43:26;;;;;;;;;;;;;;;;;;;;;
2021/04/18 05:45:59;;;;;;;1.02;0.93;;;;;;;3.74;47.37;101234.69;4846087;29;20126;-77
2021/04/18 05:48:25;;;;;;;1.48;1.38;;;;;;;4.06;47.77;101270.22;4841432;29;20059;-77
2021/04/18 05:50:51;;;;;;;2.40;2.08;;;;;;;4.13;47.79;101265.66;4830977;29;20029;-78
2021/04/18 05:53:19;;;;;;;4.03;3.72;;;;;;;4.04;48.09;101247.94;4845266;29;20061;-76
2021/04/18 05:56:07;;;;;;;3.67;3.38;;;;;;;4.02;48.08;101243.56;4825131;29;20072;-77
2021/04/18 05:58:53;;;;;;;3.70;3.22;;;;;;;3.98;48.29;101236.88;4816590;29;20063;-78
2021/04/18 06:01:48;;;;;;;2.03;1.92;;;;;;;4.34;48.22;101279.06;4827134;29;20041;-77
2021/04/18 06:04:19;;;;;;;2.03;1.92;;;;;;;4.31;48.15;101246.19;4840964;29;20113;-76
2021/04/18 06:06:54;;;;;;;1.50;1.40;;;;;;;4.45;47.60;101252.44;4826361;29;20025;-76
2021/04/18 06:09:26;;;;;;;2.95;2.75;;;;;;;4.54;48.37;101245.78;4832218;29;20094;-76
2021/04/18 06:12:02;;;;;;;2.80;2.58;;;;;;;4.51;47.61;101240.78;4808523;29;20038;-73
2021/04/18 06:14:35;;;;;;;2.90;2.60;;;;;;;4.72;48.10;101262.28;4828754;29;20050;-74
2021/04/18 06:17:08;;;;;;;1.70;1.60;;;;;;;4.75;48.09;101241.25;4822403;29;20135;-74
2021/04/18 06:19:34;;;;;;;1.50;1.40;;;;;;;4.96;47.93;101254.56;4844139;29;20030;-74
2021/04/18 06:22:05;;;;;;;1.20;1.10;;;;;;;5.13;47.16;101259.59;4826934;29;20125;-74
2021/04/18 06:24:30;;;;;;;0.98;0.98;;;;;;;5.25;47.55;101252.47;4824571;29;20034;-75
2021/04/18 06:26:58;;;;;;;1.35;1.25;;;;;;;5.62;46.75;101279.94;4841505;29;20030;-73
2021/04/18 06:29:24;;;;;;;1.60;1.50;;;;;;;5.70;46.47;101259.91;4850987;29;20030;-75
2021/04/18 06:31:49;;;;;;;1.52;1.42;;;;;;;5.94;46.61;101271.94;4826445;29;20058;-73
2021/04/18 06:34:25;;;;;;;;;;;;;;;;;;;;;
2021/04/18 06:36:56;;;;;;;3.25;3.05;;;;;;;6.28;46.40;101265.34;4838189;29;20021;-75
2021/04/18 06:39:24;;;;;;;7.53;5.38;;;;;;;6.26;48.10;101253.03;4846527;29;20090;-75
2021/04/18 06:41:57;;;;;;;5.35;4.95;;;;;;;6.44;48.02;101276.78;4824836;29;20030;-77
2021/04/18 06:44:23;;;;;;;6.15;5.20;;;;;;;6.35;48.90;101261.75;4834263;29;20081;-75
2021/04/18 06:46:57;;;;;;;5.30;4.80;;;;;;;6.42;48.60;101263.38;4848017;29;20090;-75
2021/04/18 06:49:23;;;;;;;5.68;5.15;;;;;;;6.39;49.25;101252.94;4829617;29;20031;-75
2021/04/18 06:51:51;;;;;;;4.53;4.13;;;;;;;6.53;49.23;101266.47;4810785;29;20553;-76
2021/04/18 06:54:17;;;;;;;3.47;3.28;;;;;;;6.58;48.78;101266.66;4841036;29;20077;-77
2021/04/18 06:56:43;;;;;;;3.80;3.50;;;;;;;6.56;49.15;101256.00;4830989;29;20026;-76
2021/04/18 06:59:18;;;;;;;;;;;;;;;;;;;;;
2021/04/18 07:01:44;;;;;;;4.15;3.85;;;;;;;6.82;49.02;101268.56;4838091;29;20061;-76
2021/04/18 07:04:18;;;;;;;4.72;4.32;;;;;;;6.64;48.75;101239.44;4842671;29;20536;-78
2021/04/18 07:06:50;;;;;;;5.38;4.88;;;;;;;6.76;49.13;101269.47;4840047;29;20086;-76
2021/04/18 07:09:38;;;;;;;6.63;4.40;;;;;;;6.72;48.55;101257.34;4823176;29;20033;-77
2021/04/18 07:12:11;;;;;;;6.30;5.80;;;;;;;6.65;49.32;101251.13;4828871;29;20038;-76
2021/04/18 07:15:17;;;;;;;;;;;;;;;;;;;;;
2021/04/18 07:17:49;;;;;;;4.45;4.05;;;;;;;6.85;48.64;101261.00;4828764;29;20038;-77
2021/04/18 07:20:59;;;;;;;4.32;3.78;;;;;;;7.01;48.46;101273.22;4827750;29;20415;-78
2021/04/18 07:23:35;;;;;;;8.07;6.43;;;;;;;6.85;49.46;101237.41;4826099;29;20037;-76
2021/04/18 07:26:34;;;;;;;7.18;6.30;;;;;;;7.22;49.21;101274.75;4833632;29;20086;-77
2021/04/18 07:30:03;;;;;;;;;;;;;;;;;;;;;
2021/04/18 07:32:31;;;;;;;9.80;8.00;;;;;;;7.20;49.68;101246.91;4827537;29;20117;-76
2021/04/18 07:35:07;;;;;;;;;;;;;;;;;;;;;
2021/04/18 07:37:34;;;;;;;11.80;7.63;;;;;;;7.53;49.93;101273.81;4842072;29;20036;-75
2021/04/18 07:40:09;;;;;;;9.25;6.80;;;;;;;7.69;49.97;101278.69;4837648;29;20033;-75
2021/04/18 07:42:41;;;;;;;11.25;8.05;;;;;;;7.75;49.51;101287.81;4819157;29;20120;-75
2021/04/18 07:45:21;;;;;;;19.95;9.23;;;;;;;7.65;50.61;101260.28;4823961;29;20535;-74
2021/04/18 07:47:56;;;;;;;9.90;8.85;;;;;;;7.64;50.02;101258.66;4820276;29;20503;-74
2021/04/18 07:50:22;;;;;;;15.25;8.10;;;;;;;7.73;50.44;101268.16;4818811;29;20026;-73
2021/04/18 07:52:48;;;;;;;7.57;6.82;;;;;;;7.81;50.34;101267.88;4840290;29;20037;-73
2021/04/18 07:55:19;;;;;;;13.80;8.63;;;;;;;7.86;50.42;101257.13;4823003;29;20133;-75
2021/04/18 07:57:45;;;;;;;7.57;6.90;;;;;;;8.05;50.72;101270.72;4809632;29;20038;-73
2021/04/18 08:00:15;;;;;;;5.50;5.00;;;;;;;8.46;49.75;101266.44;4823151;29;20316;-73
2021/04/18 08:02:45;;;;;;;7.25;6.60;;;;;;;8.81;48.83;101252.09;4825843;29;20328;-73
2021/04/18 08:05:30;;;;;;;;;;;;;;;;;;;;;
2021/04/18 08:08:02;;;;;;;6.77;6.00;;;;;;;9.49;48.12;101263.53;4824685;29;20045;-74
2021/04/18 08:10:50;;;;;;;8.32;7.40;;;;;;;9.69;47.67;101262.31;4820052;29;20266;-74
2021/04/18 08:13:20;;;;;;;6.63;6.05;;;;;;;9.87;47.98;101270.38;4828979;29;20419;-74
2021/04/18 08:15:46;;;;;;;5.72;5.22;;;;;;;10.09;46.99;101266.97;4825099;29;20026;-73
2021/04/18 08:18:15;;;;;;;7.85;7.22;;;;;;;10.31;46.86;101253.50;4829361;29;20035;-74
2021/04/18 08:20:47;;;;;;;7.30;6.63;;;;;;;10.46;47.36;101255.72;4827140;29;20053;-73
2021/04/18 08:23:22;;;;;;;7.05;6.40;;;;;;;10.55;47.24;101256.16;4822946;29;20160;-75
2021/04/18 08:26:08;;;;;;;7.07;6.35;;;;;;;10.83;46.66;101252.53;4816271;29;20375;-77
2021/04/18 08:28:55;;;;;;;7.25;6.63;;;;;;;11.05;46.69;101262.75;4809641;29;20038;-76
2021/04/18 08:31:22;;;;;;;11.98;8.32;;;;;;;11.13;46.78;101265.09;4818826;29;20030;-75
2021/04/18 08:33:53;;;;;;;10.35;8.75;;;;;;;11.23;46.67;101262.50;4814990;29;20121;-74
2021/04/18 08:36:20;;;;;;;12.82;8.93;;;;;;;11.43;46.08;101269.34;4812374;29;20030;-72
2021/04/18 08:38:48;;;;;;;8.75;6.82;;;;;;;11.68;45.98;101263.41;4819749;29;20034;-74
2021/04/18 08:41:15;;;;;;;14.05;6.80;;;;;;;12.10;45.71;101259.31;4820334;29;20034;-72
2021/04/18 08:44:12;;;;;;;15.48;9.40;;;;;;;12.58;44.55;101268.63;4820248;29;20113;-74
2021/04/18 08:46:40;;;;;;;8.20;7.38;;;;;;;13.01;44.18;101283.31;4809643;29;20087;-74
2021/04/18 08:49:05;;;;;;;5.88;4.75;;;;;;;13.58;43.75;101278.25;4819914;29;20070;-73
2021/04/18 08:51:31;;;;;;;7.55;6.30;;;;;;;14.23;42.97;101269.78;4800673;29;20062;-75
2021/04/18 08:54:10;;;;;;;6.63;6.07;;;;;;;15.04;41.72;101278.47;4835675;29;20124;-75
2021/04/18 08:56:51;;;;;;;4.53;4.03;;;;;;;15.98;41.75;101286.34;4818397;29;20035;-76
2021/04/18 08:59:55;;;;;;;7.28;5.25;;;;;;;16.92;38.58;101264.31;4823468;29;20030;-75
2021/04/18 09:03:34;;;;;;;12.38;4.93;;;;;;;17.74;35.63;101278.44;4821331;29;20102;-77
2021/04/18 09:09:03;;;;;;;5.15;4.25;;;;;;;18.71;34.70;101264.47;4825075;29;20553;-76
2021/04/18 09:11:47;;;;;;;3.25;3.05;;;;;;;19.52;34.08;101284.47;4836508;29;20034;-76
2021/04/18 09:14:54;;;;;;;;;;;;;;;;;;;;;
2021/04/18 09:17:57;;;;;;;2.50;2.40;;;;;;;21.24;32.17;101292.41;4828234;29;20544;-78
2021/04/18 09:20:26;;;;;;;5.93;3.75;;;;;;;21.67;30.60;101299.41;4799462;29;20074;-75
2021/04/18 09:23:17;;;;;;;2.90;2.17;;;;;;;22.53;31.23;101279.66;4800085;29;20043;-75
2021/04/18 09:26:17;;;;;;;5.20;3.80;;;;;;;23.45;27.89;101298.97;4793312;29;20037;-77
2021/04/18 09:29:23;;;;;;;6.90;5.68;;;;;;;23.80;25.69;101292.44;4798491;29;20385;-79
2021/04/18 09:32:19;;;;;;;6.05;4.85;;;;;;;24.23;24.83;101291.44;4838860;29;20030;-75
2021/04/18 09:35:01;;;;;;;;;;;;;;;;;;;;;
2021/04/18 09:37:41;;;;;;;2.00;1.90;;;;;;;25.52;25.63;101287.03;4841175;29;20022;-73
2021/04/18 09:40:10;;;;;;;1.83;1.73;;;;;;;26.32;24.54;101284.84;4840118;29;20059;-74
2021/04/18 09:42:39;;;;;;;1.42;1.10;;;;;;;27.18;23.89;101287.38;4835574;29;20034;-74
2021/04/18 09:45:22;;;;;;;2.03;1.92;;;;;;;28.20;22.71;101290.81;4841588;29;20056;-74
2021/04/18 09:47:51;;;;;;;4.32;1.70;;;;;;;28.90;22.26;101291.94;4825936;29;20507;-76
2021/04/18 09:50:38;;;;;;;0.98;0.98;;;;;;;29.59;21.74;101291.22;4835912;29;20506;-76
2021/04/18 09:53:24;;;;;;;1.52;1.42;;;;;;;30.61;19.66;101300.09;4836565;29;20036;-76
2021/04/18 09:55:51;;;;;;;1.90;1.30;;;;;;;30.84;18.71;101285.88;4840989;29;20171;-75
2021/04/18 09:58:36;;;;;;;1.02;1.02;;;;;;;31.52;17.61;101296.28;4834065;29;20042;-76
2021/04/18 10:01:03;;;;;;;1.10;1.10;;;;;;;32.01;17.46;101283.78;4824716;29;20525;-74
2021/04/18 10:03:42;;;;;;;3.03;1.95;;;;;;;32.77;16.59;101282.22;4843329;29;20097;-74
2021/04/18 10:06:22;;;;;;;1.02;1.02;;;;;;;33.43;16.06;101283.22;4809477;29;20037;-75
2021/04/18 10:08:56;;;;;;;0.55;0.55;;;;;;;33.70;15.72;101261.75;4832366;29;20034;-74
2021/04/18 10:11:22;;;;;;;0.60;0.60;;;;;;;34.26;15.37;101287.66;4820842;29;20543;-75
2021/04/18 10:13:55;;;;;;;1.33;1.23;;;;;;;34.51;14.50;101281.09;4848180;29;20046;-76
2021/04/18 10:16:25;;;;;;;0.85;0.85;;;;;;;34.70;14.29;101271.28;4856204;29;20025;-74
2021/04/18 10:19:22;;;;;;;1.00;1.00;;;;;;;35.22;13.60;101276.28;4836104;29;20029;-77
2021/04/18 10:21:51;;;;;;;0.80;0.80;;;;;;;35.48;13.69;101274.91;4836255;29;20073;-74
2021/04/18 10:24:40;;;;;;;2.47;1.67;;;;;;;35.31;11.24;101270.16;4818150;29;20388;-75
2021/04/18 10:27:10;;;;;;;1.00;1.00;;;;;;;34.39;11.67;101261.66;4818015;29;20078;-77
2021/04/18 10:29:37;;;;;;;0.90;0.90;;;;;;;33.90;11.54;101256.47;4815403;29;20193;-75
2021/04/18 10:32:03;;;;;;;1.42;1.33;;;;;;;33.87;11.52;101260.13;4828152;29;20026;-75
2021/04/18 10:34:33;;;;;;;1.13;1.02;;;;;;;33.82;11.10;101257.72;4822640;29;20125;-79
2021/04/18 10:37:09;;;;;;;;;;;;;;;;;;;;;
2021/04/18 10:39:38;;;;;;;0.88;0.88;;;;;;;34.70;11.49;101259.13;4840914;29;20693;-73
2021/04/18 10:42:17;;;;;;;;;;;;;;;;;;;;;
2021/04/18 10:44:44;;;;;;;2.25;0.75;;;;;;;35.75;11.53;101265.72;4836709;29;20022;-73
2021/04/18 10:47:15;;;;;;;0.60;0.60;;;;;;;35.82;11.14;101264.88;4816308;29;20034;-75
2021/04/18 10:49:51;;;;;;;0.47;0.38;;;;;;;36.34;11.18;101261.09;4824885;29;20026;-74
2021/04/18 10:52:16;;;;;;;3.40;0.60;;;;;;;37.11;10.60;101256.81;4829405;29;20045;-76
2021/04/18 10:54:42;;;;;;;1.30;1.00;;;;;;;37.61;9.93;101266.63;4806220;29;20038;-74
2021/04/18 10:57:08;;;;;;;0.60;0.60;;;;;;;38.12;10.01;101254.34;4834147;29;20037;-74
2021/04/18 10:59:34;;;;;;;2.05;0.77;;;;;;;38.65;9.79;101248.75;4833541;29;20121;-74
2021/04/18 11:01:59;;;;;;;1.20;0.88;;;;;;;38.79;8.86;101253.41;4837885;29;20050;-73
2021/04/18 11:04:25;;;;;;;0.88;0.88;;;;;;;38.67;9.15;101258.53;4816450;29;20053;-74
2021/04/18 11:06:50;;;;;;;1.40;1.30;;;;;;;38.39;8.39;101254.19;4837294;29;20060;-75
2021/04/18 11:09:16;;;;;;;0.95;0.95;;;;;;;38.18;8.63;101249.72;4809814;29;20038;-75
2021/04/18 11:11:42;;;;;;;0.90;0.55;;;;;;;38.33;9.25;101248.22;4818103;29;20034;-74
2021/04/18 11:14:08;;;;;;;1.52;0.85;;;;;;;38.46;8.59;101233.25;4835710;29;20034;-75
2021/04/18 11:16:34;;;;;;;0.60;0.50;;;;;;;38.43;8.71;101232.09;4815790;29;20026;-78
2021/04/18 11:19:00;;;;;;;1.13;1.02;;;;;;;38.33;8.15;101248.22;4838005;29;20471;-75
2021/04/18 11:21:28;;;;;;;0.60;0.60;;;;;;;38.26;8.42;101241.84;4840352;29;20102;-76
2021/04/18 11:23:55;;;;;;;0.85;0.68;;;;;;;38.32;8.60;101235.19;4839248;29;20034;-75
2021/04/18 11:26:22;;;;;;;2.05;1.02;;;;;;;38.62;8.31;101241.88;4817121;29;20113;-75
2021/04/18 11:28:47;;;;;;;0.93;0.80;;;;;;;38.91;8.17;101230.63;4808799;29;20029;-76
2021/04/18 11:31:14;;;;;;;0.43;0.40;;;;;;;39.32;8.29;101228.44;4842042;29;20041;-75
2021/04/18 11:33:40;;;;;;;0.60;0.60;;;;;;;39.99;7.92;101232.03;4807278;29;20061;-74
2021/04/18 11:36:06;;;;;;;0.20;0.20;;;;;;;40.74;8.11;101229.03;4839956;29;20057;-74
2021/04/18 11:38:31;;;;;;;0.43;0.32;;;;;;;41.23;7.29;101210.69;4796217;29;20457;-75
2021/04/18 11:41:17;;;;;;;;;;;;;;;;;;;;;
2021/04/18 11:44:03;;;;;;;0.40;0.40;;;;;;;41.98;7.03;101198.66;4837686;29;20018;-76
2021/04/18 11:46:39;;;;;;;0.65;0.65;;;;;;;42.13;6.88;101207.53;4831018;29;20026;-73
2021/04/18 11:49:25;;;;;;;;;;;;;;;;;;;;;
2021/04/18 11:52:01;;;;;;;;;;;;;;;;;;;;;
2021/04/18 11:54:29;;;;;;;0.98;0.98;;;;;;;42.14;6.15;101201.31;4839269;29;20358;-74
2021/04/18 11:57:03;;;;;;;0.43;0.43;;;;;;;42.29;6.26;101213.09;4810433;29;20061;-74
2021/04/18 11:59:28;;;;;;;;;;;;;;;43.03;5.77;101218.44;4830249;29;20112;-74
2021/04/18 12:01:53;;;;;;;0.80;0.40;;;;;;;42.86;6.42;101209.22;4839882;29;20327;-75
2021/04/18 12:04:19;;;;;;;0.30;0.30;;;;;;;43.22;6.20;101205.69;4839810;29;20033;-75
2021/04/18 12:06:44;;;;;;;1.08;0.95;;;;;;;43.55;5.92;101202.25;4839846;29;20686;-74
2021/04/18 12:09:10;;;;;;;0.65;0.60;;;;;;;43.63;5.94;101207.69;4820225;29;20037;-76
2021/04/18 12:11:35;;;;;;;0.50;0.50;;;;;;;43.61;5.86;101213.13;4813983;29;20033;-73
2021/04/18 12:14:03;;;;;;;0.50;0.50;;;;;;;43.70;5.66;101207.38;4837337;29;20431;-75
2021/04/18 12:16:31;;;;;;;0.50;0.50;;;;;;;43.87;5.38;101208.66;4804069;29;20048;-76
2021/04/18 12:18:59;;;;;;;0.35;0.35;;;;;;;44.13;5.47;101199.66;4832672;29;20042;-77
2021/04/18 12:21:24;;;;;;;1.35;0.32;;;;;;;44.44;5.46;101201.53;4839292;29;20034;-76
2021/04/18 12:23:50;;;;;;;0.52;0.50;;;;;;;44.77;5.13;101200.78;4834848;29;20037;-78
2021/04/18 12:26:23;;;;;;;0.88;0.30;;;;;;;45.08;5.61;101208.34;4816475;29;20029;-75
2021/04/18 12:28:59;;;;;;;0.40;0.40;;;;;;;45.61;5.45;101186.66;4810571;29;20030;-75
2021/04/18 12:31:24;;;;;;;0.20;0.20;;;;;;;46.30;5.21;101190.34;4822267;29;20038;-74
2021/04/18 12:33:50;;;;;;;0.20;0.20;;;;;;;46.84;5.06;101174.91;4836634;29;20040;-75
2021/04/18 12:36:15;;;;;;;0.65;0.65;;;;;;;47.14;4.85;101177.69;4838687;29;20030;-75
2021/04/18 12:38:41;;;;;;;0.40;0.40;;;;;;;47.10;4.42;101186.59;4815179;29;20078;-75